首页
METAR-TAF:

METAR-TAF

机场 :

Destin-Fort Walton Beach Airport

Destin, 佛罗里达州, 美国

纬度: 30-23-36N, 经度: 086-28-03W, 海拔: 6米

当前天气观测

该预报发布于46分钟前的22:53 UTC
静风
温度 25°C
湿度 83%
气压 1015 hPa
能見度: 16.1公里
少量云层高于3700英尺
阴天层高于11000英尺

METAR: KDTS 032253Z 00000KT 10SM FEW037 OVC110 25/22 A2998 RMK AO2 RAE39 SLP150 P0001 T02500217

时间: 18:39 (23:39 UTC)


TAF: 丢失

超过4000个机场的气象观测和天气预报(METAR&TAF报告)。

可查询的气象台以黄色和红色小点在地图上表示。

将鼠标移到小点上方,可查看气象台名称。

然后点击查看天气观测和预报。

如需切换地图:点击带黑十字的绿色按钮放大地图;点击带横线的绿色按钮缩小地图;或者点击绿色箭头查看邻近地区的地图。


METAR-TAF: